This is the latest recevied weather packets stored in our database for station/object Kirchdorf. If no packets are shown the sender has not sent any weather packets the latest 10 day(s).
| Time | Temp. | Humidity | Pressure | Rain* | Wind** | Luminosity | Snow |
|---|---|---|---|---|---|---|---|
| 1787877131 | 19.44° C | 90% | 1009.9 hPa | 0 mm | - | - | - |
| 1787875331 | 20° C | 89% | 1010.1 hPa | 0 mm | - | - | - |
| 1787873530 | 20° C | 88% | 1010.5 hPa | 0 mm | - | - | - |
| 1787871732 | 20.56° C | 87% | 1010.7 hPa | 0 mm | - | - | - |
| 1787869931 | 21.11° C | 84% | 1010.7 hPa | 0 mm | - | - | - |
| 1787868132 | 21.67° C | 83% | 1011 hPa | 0 mm | - | - | - |
| 1787866331 | 22.22° C | 80% | 1010.8 hPa | 0 mm | - | - | - |
| 1787864531 | 22.78° C | 78% | 1011 hPa | 0 mm | - | - | - |
| 1787862731 | 23.33° C | 76% | 1011.3 hPa | 0 mm | - | - | - |
| 1787860930 | 23.89° C | 75% | 1011.2 hPa | 0 mm | - | - | - |
| 1787859131 | 25° C | 72% | 1011.7 hPa | 0 mm | - | - | - |
| 1787857331 | 25.56° C | 70% | 1011.4 hPa | 0 mm | - | - | - |
| 1787855530 | 26.67° C | 68% | 1011.3 hPa | 0 mm | - | - | - |
| 1787853731 | 27.22° C | 67% | 1011.4 hPa | 0 mm | - | - | - |
| 1787851930 | 27.78° C | 66% | 1011.5 hPa | 0 mm | - | - | - |
| 1787850130 | 28.33° C | 66% | 1011.7 hPa | 0 mm | - | - | - |
| 1787848330 | 28.33° C | 65% | 1011.5 hPa | 0 mm | - | - | - |
| 1787846530 | 28.89° C | 64% | 1011.5 hPa | 0 mm | - | - | - |
| 1787844731 | 29.44° C | 60% | 1011.5 hPa | 0 mm | - | - | - |
| 1787842931 | 29.44° C | 60% | 1011.7 hPa | 0 mm | - | - | - |
| 1787841132 | 29.44° C | 59% | 1011.6 hPa | 0 mm | - | - | - |
| 1787839332 | 29.44° C | 59% | 1012 hPa | 0 mm | - | - | - |
| 1787837531 | 29.44° C | 58% | 1011.9 hPa | 0 mm | - | - | - |
| 1787835730 | 29.44° C | 60% | 1012 hPa | 0 mm | - | - | - |
| 1787833930 | 29.44° C | 60% | 1012.3 hPa | 0 mm | - | - | - |
* Rain since midnight (hover to see other rain measurements)
** Current wind speed in m/s (hover to see current wind gust speed)